createdAt,value
2022-11-12T00:01:06.627Z,7.27
2022-11-12T00:03:33.508Z,10.47
2022-11-12T00:06:00.404Z,41.23
2022-11-12T00:08:27.762Z,37.27
2022-11-12T00:10:54.871Z,8.83
2022-11-12T00:13:21.758Z,16.93
2022-11-12T00:15:48.686Z,9.60
2022-11-12T00:18:15.669Z,8.30
2022-11-12T00:20:42.909Z,10.87
2022-11-12T00:23:09.851Z,18.07
2022-11-12T00:25:36.849Z,12.60
2022-11-12T00:28:09.976Z,7.40
2022-11-12T00:30:41.374Z,17.87
2022-11-12T00:33:08.814Z,15.57
2022-11-12T00:35:36.005Z,16.33
2022-11-12T00:38:03.047Z,8.30
2022-11-12T00:40:30.161Z,12.77
2022-11-12T00:42:57.058Z,7.00
2022-11-12T00:45:24.491Z,21.57
2022-11-12T00:47:56.553Z,23.20
2022-11-12T00:50:24.408Z,13.47
2022-11-12T00:52:54.592Z,25.63
2022-11-12T00:55:21.703Z,7.50
2022-11-12T00:57:48.651Z,13.23
2022-11-12T01:00:18.789Z,28.43
2022-11-12T01:02:50.655Z,19.30
2022-11-12T01:05:19.087Z,14.53
2022-11-12T01:07:46.360Z,62.13
2022-11-12T01:10:15.165Z,15.23
2022-11-12T01:12:42.112Z,13.30
2022-11-12T01:15:09.648Z,37.73
2022-11-12T01:17:36.670Z,20.00
2022-11-12T01:20:04.134Z,28.73
2022-11-12T01:22:31.032Z,28.60
2022-11-12T01:24:57.924Z,27.13
2022-11-12T01:27:24.824Z,22.13
2022-11-12T01:29:51.738Z,30.53
2022-11-12T01:32:18.733Z,13.90
2022-11-12T01:34:45.631Z,35.97
2022-11-12T01:37:12.494Z,23.07
2022-11-12T01:39:39.381Z,10.70
2022-11-12T01:42:06.316Z,16.73
2022-11-12T01:44:35.746Z,12.00
2022-11-12T01:47:17.079Z,9.27
2022-11-12T01:49:53.174Z,12.83
2022-11-12T01:52:29.483Z,39.83
2022-11-12T01:55:04.827Z,29.50
2022-11-12T01:57:38.530Z,15.50
2022-11-12T02:00:11.061Z,24.00
2022-11-12T02:02:38.802Z,38.53
2022-11-12T02:05:10.370Z,17.60
2022-11-12T02:07:41.605Z,51.87
2022-11-12T02:10:09.990Z,16.00
2022-11-12T02:12:56.402Z,20.30
2022-11-12T02:15:23.379Z,42.80
2022-11-12T02:17:50.326Z,13.80
2022-11-12T02:20:17.381Z,10.40
2022-11-12T02:22:44.628Z,10.77
2022-11-12T02:25:19.923Z,24.50
2022-11-12T02:27:51.691Z,15.93
2022-11-12T02:30:31.193Z,19.50
2022-11-12T02:32:58.792Z,19.57
2022-11-12T02:35:25.697Z,8.23
2022-11-12T02:37:52.718Z,17.03
2022-11-12T02:40:19.734Z,41.77
2022-11-12T02:42:46.757Z,19.43
2022-11-12T02:45:13.983Z,21.90
2022-11-12T02:47:41.023Z,20.57
2022-11-12T02:50:08.777Z,25.37
2022-11-12T02:52:36.233Z,21.10
2022-11-12T02:55:03.364Z,9.83
2022-11-12T02:57:30.383Z,12.57
2022-11-12T02:59:57.355Z,15.47
2022-11-12T03:02:24.391Z,30.30
2022-11-12T03:04:51.259Z,17.63
2022-11-12T03:07:18.310Z,9.53
2022-11-12T03:09:45.239Z,17.03
2022-11-12T03:12:12.550Z,16.60
2022-11-12T03:14:39.413Z,18.23
2022-11-12T03:17:06.314Z,26.47
2022-11-12T03:19:33.195Z,43.93
2022-11-12T03:22:00.097Z,16.23
2022-11-12T03:24:28.167Z,18.37
2022-11-12T03:26:55.124Z,18.93
2022-11-12T03:29:21.979Z,20.50
2022-11-12T03:31:48.919Z,12.97
2022-11-12T03:34:15.784Z,21.53
2022-11-12T03:36:42.673Z,16.27
2022-11-12T03:39:09.832Z,25.00
2022-11-12T03:41:36.716Z,13.77
2022-11-12T03:44:03.785Z,17.53
2022-11-12T03:46:30.678Z,11.43
2022-11-12T03:48:59.224Z,14.40
2022-11-12T03:51:26.106Z,23.67
2022-11-12T03:53:52.982Z,14.90
2022-11-12T03:56:19.918Z,12.93
2022-11-12T03:58:46.810Z,12.33
2022-11-12T04:01:13.716Z,15.37
2022-11-12T04:03:40.741Z,15.30
2022-11-12T04:06:27.140Z,14.60
2022-11-12T04:08:54.302Z,11.70
2022-11-12T04:11:21.362Z,12.80
2022-11-12T04:13:48.325Z,12.40
2022-11-12T04:16:38.163Z,18.03
2022-11-12T04:19:24.903Z,13.97
2022-11-12T04:22:07.172Z,16.93
2022-11-12T04:24:57.626Z,24.73
2022-11-12T04:27:26.731Z,17.33
2022-11-12T04:30:13.085Z,11.50
2022-11-12T04:32:56.836Z,14.13
2022-11-12T04:35:25.758Z,13.27
2022-11-12T04:37:53.232Z,11.40
2022-11-12T04:40:44.857Z,13.53
2022-11-12T04:43:33.903Z,14.40
2022-11-12T04:46:02.368Z,15.10
2022-11-12T04:48:29.767Z,16.40
2022-11-12T04:51:03.154Z,12.27
2022-11-12T04:53:30.978Z,13.27
2022-11-12T04:55:59.562Z,14.37
2022-11-12T04:58:26.915Z,15.73
2022-11-12T05:00:54.153Z,15.67
2022-11-12T05:03:21.477Z,14.10
2022-11-12T05:05:48.399Z,18.73
2022-11-12T05:08:15.301Z,17.33
2022-11-12T05:10:42.154Z,12.50
2022-11-12T05:13:09.069Z,12.10
2022-11-12T05:15:36.042Z,11.63
2022-11-12T05:18:02.972Z,16.30
2022-11-12T05:20:29.853Z,12.63
2022-11-12T05:23:06.781Z,13.33
2022-11-12T05:25:36.183Z,14.47
2022-11-12T05:28:03.184Z,14.20
2022-11-12T05:30:30.163Z,10.80
2022-11-12T05:32:57.046Z,10.83
2022-11-12T05:35:23.894Z,21.33
2022-11-12T05:37:50.814Z,15.63
2022-11-12T05:40:17.812Z,14.53
2022-11-12T05:42:45.702Z,16.67
2022-11-12T05:45:12.586Z,13.57
2022-11-12T05:47:39.464Z,20.23
2022-11-12T05:50:14.404Z,16.83
2022-11-12T05:52:41.367Z,15.77
2022-11-12T05:55:08.982Z,17.47
2022-11-12T05:57:35.911Z,14.47
2022-11-12T06:00:03.537Z,12.10
2022-11-12T06:02:30.510Z,12.87
2022-11-12T06:04:57.428Z,16.13
2022-11-12T06:07:24.799Z,17.90
2022-11-12T06:09:52.763Z,15.20
2022-11-12T06:12:19.625Z,16.67
2022-11-12T06:14:46.479Z,18.90
2022-11-12T06:17:13.365Z,18.83
2022-11-12T06:19:40.322Z,20.50
2022-11-12T06:22:07.250Z,23.33
2022-11-12T06:24:35.501Z,16.53
2022-11-12T06:27:02.734Z,19.40
2022-11-12T06:29:30.275Z,16.00
2022-11-12T06:31:57.245Z,22.53
2022-11-12T06:34:24.296Z,32.83
2022-11-12T06:36:51.365Z,22.23
2022-11-12T06:39:18.263Z,37.30
2022-11-12T06:41:45.154Z,26.07
2022-11-12T06:44:12.161Z,23.07
2022-11-12T06:46:39.061Z,22.50
2022-11-12T06:49:06.096Z,20.87
2022-11-12T06:51:32.972Z,25.27
2022-11-12T06:53:59.851Z,36.13
2022-11-12T06:56:26.715Z,29.83
2022-11-12T06:58:53.769Z,29.90
2022-11-12T07:01:20.726Z,21.33
2022-11-12T07:03:52.723Z,40.40
2022-11-12T07:06:20.980Z,49.40
2022-11-12T07:08:49.695Z,34.73
2022-11-12T07:11:18.504Z,69.27
2022-11-12T07:13:46.630Z,35.37
2022-11-12T07:16:18.482Z,54.17
2022-11-12T07:18:47.188Z,59.33
2022-11-12T07:21:20.511Z,34.53
2022-11-12T07:23:48.145Z,36.47
2022-11-12T07:26:21.890Z,30.83
2022-11-12T07:28:51.380Z,28.67
2022-11-12T07:31:20.380Z,23.77
2022-11-12T07:33:50.268Z,28.93
2022-11-12T07:36:20.060Z,39.73
2022-11-12T07:38:47.485Z,28.43
2022-11-12T07:41:23.523Z,26.00
2022-11-12T07:43:53.137Z,25.90
2022-11-12T07:46:24.662Z,28.70
2022-11-12T07:48:52.432Z,29.20
2022-11-12T07:51:26.200Z,28.20
2022-11-12T07:53:59.340Z,29.10
2022-11-12T07:56:28.410Z,20.73
2022-11-12T07:58:55.378Z,25.23
2022-11-12T08:01:40.540Z,18.27
2022-11-12T08:04:10.738Z,21.03
2022-11-12T08:06:38.671Z,19.60
2022-11-12T08:09:08.592Z,17.83
2022-11-12T08:11:35.991Z,22.93
2022-11-12T08:14:03.304Z,19.03
2022-11-12T08:16:30.447Z,22.73
2022-11-12T08:18:57.330Z,19.37
2022-11-12T08:21:24.518Z,18.43
2022-11-12T08:23:51.549Z,19.63
2022-11-12T08:26:20.589Z,40.73
2022-11-12T08:28:47.681Z,22.10
2022-11-12T08:31:21.037Z,20.20
2022-11-12T08:33:48.328Z,20.10
2022-11-12T08:36:17.430Z,21.70
2022-11-12T08:38:45.269Z,14.80
2022-11-12T08:41:14.555Z,27.97
2022-11-12T08:43:43.525Z,21.70
2022-11-12T08:46:10.521Z,24.67
2022-11-12T08:48:40.063Z,35.73
2022-11-12T08:51:08.206Z,21.83
2022-11-12T08:53:35.289Z,24.77
2022-11-12T08:56:02.429Z,17.50
2022-11-12T08:58:29.886Z,18.93
2022-11-12T09:00:57.776Z,38.53
2022-11-12T09:03:26.419Z,19.63
2022-11-12T09:05:54.382Z,28.00
2022-11-12T09:08:25.974Z,26.63
2022-11-12T09:10:53.243Z,28.23
2022-11-12T09:13:21.104Z,20.03
2022-11-12T09:15:48.064Z,18.77
2022-11-12T09:18:18.429Z,18.73
2022-11-12T09:20:46.446Z,19.90
2022-11-12T09:23:16.291Z,30.73
2022-11-12T09:25:43.529Z,24.30
2022-11-12T09:28:16.992Z,26.43
2022-11-12T09:30:50.274Z,22.67
2022-11-12T09:33:21.631Z,22.73
2022-11-12T09:35:49.094Z,25.17
2022-11-12T09:38:17.840Z,24.00
2022-11-12T09:40:51.649Z,25.47
2022-11-12T09:43:29.219Z,24.60
2022-11-12T09:49:01.871Z,21.00
2022-11-12T09:51:34.418Z,24.33
2022-11-12T09:54:22.442Z,21.13
2022-11-12T09:56:50.893Z,23.40
2022-11-12T09:59:19.049Z,22.33
2022-11-12T10:02:41.881Z,21.73
2022-11-12T10:05:41.637Z,22.97
2022-11-12T10:08:51.128Z,26.00
2022-11-12T10:12:01.246Z,23.00
2022-11-12T10:15:47.672Z,22.53
2022-11-12T10:18:51.099Z,23.33
2022-11-12T10:21:40.634Z,24.53
2022-11-12T10:24:12.162Z,27.10
2022-11-12T10:26:40.599Z,22.87
2022-11-12T10:29:38.253Z,22.60
2022-11-12T10:32:05.252Z,21.13
2022-11-12T10:34:32.202Z,21.33
2022-11-12T10:37:07.732Z,19.30
2022-11-12T10:39:44.845Z,16.87
2022-11-12T10:42:15.838Z,19.33
2022-11-12T10:44:43.478Z,19.00
2022-11-12T10:47:33.652Z,17.73
2022-11-12T10:50:10.299Z,19.80
2022-11-12T10:52:37.640Z,18.37
2022-11-12T10:55:28.189Z,16.90
2022-11-12T10:58:10.313Z,19.00
2022-11-12T11:00:51.769Z,18.00
2022-11-12T11:03:37.526Z,16.23
2022-11-12T11:06:26.081Z,17.20
2022-11-12T11:09:17.377Z,20.80
2022-11-12T11:11:56.491Z,20.77
2022-11-12T11:14:23.301Z,19.63
2022-11-12T11:16:53.372Z,21.20
2022-11-12T11:19:21.079Z,17.77
2022-11-12T11:21:50.722Z,18.13
2022-11-12T11:24:59.315Z,18.80
2022-11-12T11:27:28.787Z,22.13
2022-11-12T11:30:22.405Z,20.93
2022-11-12T11:33:38.022Z,22.00
2022-11-12T11:36:56.377Z,19.30
2022-11-12T11:39:56.178Z,24.20
2022-11-12T11:42:44.406Z,22.17
2022-11-12T11:45:49.638Z,20.40
2022-11-12T11:48:33.666Z,25.00
2022-11-12T11:51:47.022Z,22.37
2022-11-12T11:54:22.699Z,17.47
2022-11-12T11:56:51.970Z,15.07
2022-11-12T11:59:57.082Z,14.90
2022-11-12T12:02:51.453Z,21.90
2022-11-12T12:05:37.269Z,23.20
2022-11-12T12:08:21.887Z,14.77
2022-11-12T12:11:12.810Z,21.07
2022-11-12T12:13:57.678Z,26.13
2022-11-12T12:16:53.209Z,24.83
2022-11-12T12:19:34.917Z,28.40
2022-11-12T12:22:04.680Z,18.80
2022-11-12T12:24:56.349Z,18.83
2022-11-12T12:27:30.060Z,20.13
2022-11-12T12:30:03.551Z,15.97
2022-11-12T12:32:57.618Z,18.40
2022-11-12T12:35:36.992Z,20.03
2022-11-12T12:38:25.818Z,17.00
2022-11-12T12:41:27.742Z,16.97
2022-11-12T12:44:03.404Z,18.50
2022-11-12T12:46:37.087Z,20.10
2022-11-12T12:49:07.481Z,20.37
2022-11-12T12:51:35.386Z,19.90
2022-11-12T12:54:02.262Z,19.03
2022-11-12T12:56:31.845Z,19.40
2022-11-12T12:59:03.631Z,20.20
2022-11-12T13:01:34.923Z,17.10
2022-11-12T13:04:08.811Z,21.23
2022-11-12T13:06:46.265Z,19.27
2022-11-12T13:09:13.149Z,22.30
2022-11-12T13:12:01.620Z,21.43
2022-11-12T13:14:31.463Z,23.47
2022-11-12T13:17:04.031Z,21.33
2022-11-12T13:19:34.860Z,26.27
2022-11-12T13:22:20.120Z,22.33
2022-11-12T13:25:12.200Z,22.37
2022-11-12T13:27:47.819Z,22.40
2022-11-12T13:30:14.663Z,21.20
2022-11-12T13:32:55.214Z,20.50
2022-11-12T13:35:27.121Z,23.57
2022-11-12T13:38:13.272Z,22.53
2022-11-12T13:41:40.422Z,21.17
2022-11-12T13:44:14.624Z,20.57
2022-11-12T13:46:42.490Z,19.63
2022-11-12T13:49:16.946Z,22.63
2022-11-12T13:51:46.811Z,17.67
2022-11-12T13:54:36.726Z,19.30
2022-11-12T13:57:20.101Z,20.43
2022-11-12T13:59:47.763Z,23.47
2022-11-12T14:02:25.735Z,21.90
2022-11-12T14:04:54.182Z,25.40
2022-11-12T14:07:42.907Z,25.43
2022-11-12T14:10:34.103Z,24.77
2022-11-12T14:13:15.871Z,23.67
2022-11-12T14:16:01.766Z,25.43
2022-11-12T14:19:11.390Z,21.97
2022-11-12T14:21:38.645Z,19.90
2022-11-12T14:24:06.011Z,25.93
2022-11-12T14:26:42.935Z,20.83
2022-11-12T14:29:20.215Z,22.30
2022-11-12T14:32:02.008Z,28.93
2022-11-12T14:34:34.227Z,25.50
2022-11-12T14:37:01.902Z,24.83
2022-11-12T14:39:30.712Z,28.20
2022-11-12T14:41:59.497Z,23.40
2022-11-12T14:44:36.374Z,30.47
2022-11-12T14:47:04.013Z,28.90
2022-11-12T14:49:45.990Z,32.27
2022-11-12T14:52:21.292Z,25.47
2022-11-12T14:54:51.433Z,28.60
2022-11-12T14:57:26.319Z,31.30
2022-11-12T14:59:53.643Z,31.27
2022-11-12T15:02:53.468Z,30.80
2022-11-12T15:05:22.114Z,33.03
2022-11-12T15:08:06.329Z,35.87
2022-11-12T15:10:40.498Z,32.33
2022-11-12T15:13:19.333Z,33.97
2022-11-12T15:16:07.450Z,39.00
2022-11-12T15:18:35.629Z,33.77
2022-11-12T15:21:25.735Z,32.27
2022-11-12T15:24:01.913Z,34.70
2022-11-12T15:26:36.937Z,35.07
2022-11-12T15:29:32.649Z,34.17
2022-11-12T15:32:03.543Z,34.77
2022-11-12T15:34:40.805Z,32.27
2022-11-12T15:37:17.498Z,33.10
2022-11-12T15:40:00.742Z,36.73
2022-11-12T15:42:37.729Z,41.17
2022-11-12T15:45:21.385Z,42.43
2022-11-12T15:47:48.753Z,49.03
2022-11-12T15:50:22.902Z,41.87
2022-11-12T15:52:50.645Z,45.43
2022-11-12T15:55:18.943Z,44.03
2022-11-12T15:57:51.610Z,51.03
2022-11-12T16:00:22.307Z,55.23
2022-11-12T16:03:17.173Z,49.43
2022-11-12T16:05:44.948Z,50.63
2022-11-12T16:08:13.280Z,50.53
2022-11-12T16:10:42.799Z,51.40
2022-11-12T16:13:28.161Z,53.50
2022-11-12T16:15:55.516Z,51.13
2022-11-12T16:18:22.641Z,54.20
2022-11-12T16:20:50.144Z,61.60
2022-11-12T16:23:17.063Z,52.83
2022-11-12T16:25:44.834Z,56.03
2022-11-12T16:28:17.698Z,54.90
2022-11-12T16:30:46.100Z,53.03
2022-11-12T16:33:14.119Z,59.60
2022-11-12T16:35:41.490Z,57.87
2022-11-12T16:38:19.336Z,66.83
2022-11-12T16:40:46.413Z,64.90
2022-11-12T16:43:13.292Z,61.13
2022-11-12T16:45:42.918Z,62.07
2022-11-12T16:48:19.908Z,56.77
2022-11-12T16:50:47.612Z,62.33
2022-11-12T16:53:14.849Z,62.30
2022-11-12T16:55:42.018Z,59.43
2022-11-12T16:58:14.364Z,59.80
2022-11-12T17:00:47.070Z,61.77
2022-11-12T17:03:14.728Z,54.20
2022-11-12T17:05:41.995Z,58.60
2022-11-12T17:08:10.909Z,63.20
2022-11-12T17:10:38.560Z,69.93
2022-11-12T17:13:05.492Z,61.90
2022-11-12T17:15:32.357Z,63.13
2022-11-12T17:17:59.247Z,63.43
2022-11-12T17:20:26.116Z,65.50
2022-11-12T17:22:52.977Z,70.13
2022-11-12T17:25:19.871Z,59.13
2022-11-12T17:27:46.868Z,59.17
2022-11-12T17:30:14.021Z,75.90
2022-11-12T17:32:41.381Z,57.03
2022-11-12T17:35:08.445Z,61.60
2022-11-12T17:37:35.321Z,67.77
2022-11-12T17:40:03.078Z,63.00
2022-11-12T17:42:30.004Z,63.60
2022-11-12T17:44:56.916Z,63.70
2022-11-12T17:47:23.790Z,64.70
2022-11-12T17:49:50.742Z,64.40
2022-11-12T17:52:17.594Z,59.30
2022-11-12T17:54:44.502Z,66.40
2022-11-12T17:57:11.380Z,67.47
2022-11-12T17:59:38.272Z,65.07
2022-11-12T18:02:05.152Z,64.37
2022-11-12T18:04:32.042Z,69.30
2022-11-12T18:06:59.105Z,68.93
2022-11-12T18:09:26.010Z,62.20
2022-11-12T18:11:56.875Z,84.70
2022-11-12T18:14:26.028Z,70.27
2022-11-12T18:16:53.366Z,81.33
2022-11-12T18:19:21.529Z,75.73
2022-11-12T18:21:48.452Z,66.17
2022-11-12T18:24:17.282Z,67.33
2022-11-12T18:26:44.420Z,61.37
2022-11-12T18:29:12.885Z,65.87
2022-11-12T18:31:40.691Z,58.37
2022-11-12T18:34:10.812Z,76.17
2022-11-12T18:36:37.713Z,71.70
2022-11-12T18:39:04.984Z,73.73
2022-11-12T18:41:33.286Z,69.07
2022-11-12T18:44:01.601Z,53.03
2022-11-12T18:46:29.663Z,47.40
2022-11-12T18:48:56.611Z,71.40
2022-11-12T18:51:23.585Z,141.23
2022-11-12T18:53:50.502Z,77.63
2022-11-12T18:56:20.542Z,57.13
2022-11-12T18:58:48.289Z,61.53
2022-11-12T19:01:20.973Z,87.93
2022-11-12T19:03:53.031Z,54.30
2022-11-12T19:06:20.429Z,121.87
2022-11-12T19:08:47.510Z,175.47
2022-11-12T19:11:18.649Z,100.93
2022-11-12T19:13:52.488Z,72.67
2022-11-12T19:16:22.748Z,81.20
2022-11-12T19:18:51.350Z,114.13
2022-11-12T19:21:24.185Z,64.90
2022-11-12T19:23:54.774Z,46.13
2022-11-12T19:26:23.781Z,72.50
2022-11-12T19:28:50.915Z,104.63
2022-11-12T19:31:23.735Z,158.13
2022-11-12T19:33:50.967Z,56.57
2022-11-12T19:36:21.945Z,73.47
2022-11-12T19:38:57.814Z,64.07
2022-11-12T19:41:25.558Z,65.47
2022-11-12T19:43:53.240Z,78.93
2022-11-12T19:46:21.300Z,69.93
2022-11-12T19:48:48.330Z,82.37
2022-11-12T19:51:15.217Z,207.27
2022-11-12T19:53:46.702Z,61.17
2022-11-12T19:56:18.840Z,132.83
2022-11-12T19:58:48.647Z,154.53
2022-11-12T20:01:18.312Z,110.40
2022-11-12T20:03:45.797Z,113.97
2022-11-12T20:06:19.454Z,70.77
2022-11-12T20:08:47.051Z,81.10
2022-11-12T20:11:16.311Z,140.93
2022-11-12T20:13:43.371Z,82.90
2022-11-12T20:16:22.251Z,81.77
2022-11-12T20:18:55.479Z,55.63
2022-11-12T20:21:23.962Z,66.30
2022-11-12T20:23:50.917Z,60.20
2022-11-12T20:26:19.052Z,72.27
2022-11-12T20:28:46.007Z,79.03
2022-11-12T20:31:16.130Z,53.63
2022-11-12T20:33:43.117Z,74.87
2022-11-12T20:36:20.284Z,79.67
2022-11-12T20:38:49.874Z,62.10
2022-11-12T20:41:20.559Z,48.30
2022-11-12T20:43:48.322Z,62.87
2022-11-12T20:46:15.226Z,63.70
2022-11-12T20:48:43.944Z,78.10
2022-11-12T20:51:24.136Z,94.90
2022-11-12T20:53:58.798Z,71.50
2022-11-12T20:56:29.709Z,76.63
2022-11-12T20:58:58.666Z,56.90
2022-11-12T21:01:27.988Z,101.40
2022-11-12T21:03:55.635Z,64.13
2022-11-12T21:06:26.058Z,59.43
2022-11-12T21:08:53.039Z,73.33
2022-11-12T21:11:22.463Z,87.37
2022-11-12T21:13:49.813Z,76.27
2022-11-12T21:16:17.317Z,61.53
2022-11-12T21:18:44.462Z,63.50
2022-11-12T21:21:14.989Z,52.07
2022-11-12T21:23:44.463Z,49.47
2022-11-12T21:26:15.560Z,66.20
2022-11-12T21:28:44.722Z,62.90
2022-11-12T21:31:27.169Z,65.57
2022-11-12T21:33:58.336Z,55.70
2022-11-12T21:36:28.177Z,65.47
2022-11-12T21:38:55.132Z,63.27
2022-11-12T21:41:26.389Z,56.83
2022-11-12T21:43:53.871Z,77.50
2022-11-12T21:46:30.155Z,43.90
2022-11-12T21:48:58.008Z,50.00
2022-11-12T21:51:30.986Z,51.23
2022-11-12T21:54:05.234Z,82.27
2022-11-12T21:56:34.221Z,56.30
2022-11-12T21:59:01.470Z,44.60
2022-11-12T22:01:32.597Z,48.57
2022-11-12T22:04:00.035Z,61.67
2022-11-12T22:06:29.355Z,48.83
2022-11-12T22:08:58.372Z,69.47
2022-11-12T22:11:26.489Z,58.60
2022-11-12T22:13:53.597Z,113.97
2022-11-12T22:16:24.071Z,53.93
2022-11-12T22:18:54.118Z,49.90
2022-11-12T22:21:28.168Z,69.00
2022-11-12T22:23:56.328Z,71.23
2022-11-12T22:26:26.509Z,45.97
2022-11-12T22:28:55.218Z,81.93
2022-11-12T22:31:28.286Z,58.70
2022-11-12T22:33:58.138Z,60.33
2022-11-12T22:36:28.462Z,48.03
2022-11-12T22:38:56.096Z,89.77
2022-11-12T22:41:29.128Z,103.00
2022-11-12T22:43:59.990Z,44.27
2022-11-12T22:46:33.878Z,69.67
2022-11-12T22:49:02.327Z,85.27
2022-11-12T22:51:31.950Z,90.40
2022-11-12T22:54:07.871Z,48.73
2022-11-12T22:56:35.102Z,49.87
2022-11-12T22:59:04.651Z,55.03
2022-11-12T23:01:35.332Z,124.07
2022-11-12T23:04:06.002Z,60.73
2022-11-12T23:06:33.325Z,49.67
2022-11-12T23:09:01.255Z,52.40
2022-11-12T23:11:28.654Z,76.03
2022-11-12T23:13:56.404Z,56.87
2022-11-12T23:16:31.194Z,107.07
2022-11-12T23:18:59.401Z,55.70
2022-11-12T23:21:29.152Z,48.83
2022-11-12T23:23:59.933Z,48.63
2022-11-12T23:26:33.472Z,39.13
2022-11-12T23:29:01.939Z,52.47
2022-11-12T23:31:31.430Z,72.90
2022-11-12T23:34:00.453Z,70.80
2022-11-12T23:36:28.917Z,52.27
2022-11-12T23:38:57.530Z,44.30
2022-11-12T23:41:26.830Z,80.63
2022-11-12T23:43:55.137Z,74.20
2022-11-12T23:46:22.545Z,48.30
2022-11-12T23:48:50.119Z,73.47
2022-11-12T23:51:20.281Z,80.87
2022-11-12T23:53:48.833Z,40.20
2022-11-12T23:56:18.201Z,48.00
2022-11-12T23:58:45.337Z,45.33
